Time;durP1;ratioP1;P1;durP2;ratioP2;P2;SDS_P1;SDS_P2;PMS_P1;PMS_P2;Temp;Humidity;BMP_temperature;BMP_pressure;BME280_temperature;BME280_humidity;BME280_pressure;Samples;Min_cycle;Max_cycle;Signal;HPM_P1;HPM_P2
2021/09/27 00:01:12;;;;;;;5.05;2.75;;;19.20;90.60;;;;;;5065477;28;20033;-81
2021/09/27 00:03:39;;;;;;;5.43;2.88;;;19.30;90.70;;;;;;5066323;28;20028;-80
2021/09/27 00:06:07;;;;;;;7.43;3.30;;;19.20;90.60;;;;;;5066187;28;20489;-80
2021/09/27 00:08:33;;;;;;;5.47;3.03;;;19.20;90.70;;;;;;5065937;28;20067;-80
2021/09/27 00:11:09;;;;;;;5.40;2.88;;;19.30;90.70;;;;;;5066522;28;20056;-80
2021/09/27 00:13:38;;;;;;;4.85;2.88;;;19.30;90.60;;;;;;5065794;28;20755;-80
2021/09/27 00:16:07;;;;;;;6.80;2.88;;;19.30;90.60;;;;;;5065415;28;20025;-80
2021/09/27 00:18:33;;;;;;;3.90;2.55;;;19.20;90.60;;;;;;5065935;28;20085;-81
2021/09/27 00:21:01;;;;;;;7.80;3.08;;;19.20;90.70;;;;;;5065579;28;20813;-80
2021/09/27 00:23:29;;;;;;;3.60;2.75;;;19.20;90.60;;;;;;5065658;28;20031;-80
2021/09/27 00:25:54;;;;;;;5.13;3.40;;;19.20;90.70;;;;;;5065446;28;20024;-81
2021/09/27 00:28:20;;;;;;;4.65;2.70;;;19.20;90.60;;;;;;5066521;28;20382;-81
2021/09/27 00:30:47;;;;;;;10.07;3.50;;;19.20;90.60;;;;;;5065991;28;20028;-81
2021/09/27 00:33:15;;;;;;;8.15;2.75;;;19.20;90.50;;;;;;5065498;28;20028;-80
2021/09/27 00:35:40;;;;;;;7.45;3.33;;;19.20;90.50;;;;;;5066597;28;20822;-80
2021/09/27 00:38:08;;;;;;;4.15;2.67;;;19.20;90.60;;;;;;5067043;28;20075;-81
2021/09/27 00:40:38;;;;;;;4.82;2.85;;;19.20;90.50;;;;;;5066760;28;20062;-80
2021/09/27 00:43:04;;;;;;;6.28;3.30;;;19.20;90.50;;;;;;5065082;28;20523;-80
2021/09/27 00:45:34;;;;;;;6.40;3.03;;;19.10;90.60;;;;;;5066919;28;20036;-80
2021/09/27 00:48:00;;;;;;;8.20;3.33;;;19.00;90.70;;;;;;5065447;28;20365;-80
2021/09/27 00:50:31;;;;;;;5.85;3.10;;;19.00;90.80;;;;;;5066857;28;20566;-80
2021/09/27 00:52:58;;;;;;;5.10;4.07;;;19.00;90.90;;;;;;5067166;28;20074;-81
2021/09/27 00:55:25;;;;;;;4.35;2.80;;;18.90;91.00;;;;;;5066089;28;20111;-80
2021/09/27 00:57:53;;;;;;;4.88;3.17;;;18.90;91.10;;;;;;5066518;28;20719;-80
2021/09/27 01:00:22;;;;;;;7.15;3.08;;;18.90;91.10;;;;;;5065211;28;20033;-81
2021/09/27 01:02:48;;;;;;;8.73;3.33;;;18.90;91.10;;;;;;5066789;28;20036;-80
2021/09/27 01:05:16;;;;;;;3.75;2.90;;;18.90;91.10;;;;;;5065795;28;20025;-80
2021/09/27 01:07:49;;;;;;;5.85;3.10;;;18.90;91.10;;;;;;5064867;28;20035;-80
2021/09/27 01:10:40;;;;;;;6.97;3.45;;;18.80;91.20;;;;;;5066268;28;20433;-80
2021/09/27 01:13:36;;;;;;;5.38;3.35;;;18.80;91.30;;;;;;5065070;28;20032;-80
2021/09/27 01:16:24;;;;;;;4.73;3.07;;;18.70;91.50;;;;;;5066402;28;20025;-79
2021/09/27 01:19:14;;;;;;;4.40;3.15;;;18.80;91.50;;;;;;5065351;28;20094;-80
2021/09/27 01:21:45;;;;;;;7.70;3.40;;;18.70;91.50;;;;;;5065286;28;20025;-80
2021/09/27 01:24:49;;;;;;;6.07;3.38;;;18.70;91.60;;;;;;5065119;28;20502;-80
2021/09/27 01:28:02;;;;;;;5.20;3.33;;;18.70;91.70;;;;;;5065714;28;20032;-81
2021/09/27 01:30:46;;;;;;;4.35;2.72;;;18.70;91.70;;;;;;5019176;28;20112;-83
2021/09/27 01:33:34;;;;;;;4.95;2.65;;;18.70;91.60;;;;;;5066212;28;20035;-82
2021/09/27 01:36:26;;;;;;;6.40;3.22;;;18.60;91.70;;;;;;5065719;28;20513;-82
2021/09/27 01:39:03;;;;;;;5.97;3.10;;;18.60;91.70;;;;;;5066029;28;20040;-83
2021/09/27 01:41:43;;;;;;;5.75;2.72;;;18.60;91.90;;;;;;5066210;28;20121;-83
2021/09/27 01:44:20;;;;;;;8.73;3.28;;;18.60;91.90;;;;;;5067436;28;20034;-83
2021/09/27 01:47:03;;;;;;;7.50;2.90;;;18.50;91.90;;;;;;5068032;28;20031;-83
2021/09/27 01:49:56;;;;;;;5.95;3.25;;;18.50;91.90;;;;;;5069691;28;20460;-83
2021/09/27 01:52:41;;;;;;;15.93;3.50;;;18.60;92.00;;;;;;5069915;28;20032;-83
2021/09/27 01:55:22;;;;;;;10.60;3.47;;;18.60;91.90;;;;;;5069715;28;20028;-84
2021/09/27 01:58:12;;;;;;;4.95;3.38;;;18.60;91.80;;;;;;5067734;28;20131;-82
2021/09/27 02:00:43;;;;;;;6.97;3.15;;;18.60;92.00;;;;;;5069427;28;20020;-83
2021/09/27 02:03:24;;;;;;;4.90;3.15;;;18.60;91.90;;;;;;5068593;28;20162;-81
2021/09/27 02:05:56;;;;;;;6.22;3.05;;;18.60;91.90;;;;;;5069243;28;20025;-80
2021/09/27 02:08:27;;;;;;;5.68;3.20;;;18.60;91.90;;;;;;5069426;28;20247;-80
2021/09/27 02:11:00;;;;;;;5.25;3.00;;;18.60;91.90;;;;;;5067795;28;20021;-80
2021/09/27 02:13:37;;;;;;;7.20;3.45;;;18.60;91.80;;;;;;5069758;28;20033;-81
2021/09/27 02:16:28;;;;;;;3.47;2.70;;;18.70;91.60;;;;;;5069314;28;20028;-81
2021/09/27 02:19:01;;;;;;;5.72;2.90;;;18.70;91.60;;;;;;5064061;28;20045;-79
2021/09/27 02:21:32;;;;;;;5.10;3.00;;;18.60;91.70;;;;;;5068049;28;20178;-81
2021/09/27 02:24:16;;;;;;;5.57;3.42;;;18.60;91.80;;;;;;5067704;28;20103;-80
2021/09/27 02:26:47;;;;;;;4.93;3.60;;;18.60;91.80;;;;;;5068660;28;20487;-82
2021/09/27 02:29:13;;;;;;;7.03;3.47;;;18.60;91.90;;;;;;5069171;28;20028;-80
2021/09/27 02:31:44;;;;;;;8.40;3.88;;;18.50;92.00;;;;;;5068665;28;20033;-81
2021/09/27 02:34:33;;;;;;;3.97;3.00;;;18.50;92.00;;;;;;5068967;28;20021;-81
2021/09/27 02:37:04;;;;;;;6.90;3.13;;;18.60;92.10;;;;;;5068776;28;20653;-80
2021/09/27 02:39:47;;;;;;;7.60;3.50;;;18.50;92.10;;;;;;5069933;28;20461;-80
2021/09/27 02:42:28;;;;;;;5.10;2.65;;;18.50;92.10;;;;;;5066963;28;20032;-81
2021/09/27 02:44:53;;;;;;;4.40;3.42;;;18.50;92.00;;;;;;5068606;28;20027;-80
2021/09/27 02:47:26;;;;;;;5.30;3.17;;;18.50;92.10;;;;;;5067785;28;20028;-81
2021/09/27 02:49:56;;;;;;;7.47;3.20;;;18.50;92.00;;;;;;5068426;28;20017;-81
2021/09/27 02:52:23;;;;;;;6.28;3.03;;;18.50;92.00;;;;;;5068247;28;20107;-81
2021/09/27 02:54:56;;;;;;;7.80;3.55;;;18.50;92.10;;;;;;5067045;28;20051;-81
2021/09/27 02:57:41;;;;;;;11.90;3.50;;;18.50;92.20;;;;;;5068778;28;20119;-80
2021/09/27 03:00:19;;;;;;;5.22;3.17;;;18.50;92.20;;;;;;5067207;28;20115;-81
2021/09/27 03:03:30;;;;;;;5.50;2.53;;;18.50;92.20;;;;;;5068199;28;20032;-81
2021/09/27 03:06:14;;;;;;;5.90;3.30;;;18.50;92.60;;;;;;5025255;28;20064;-80
2021/09/27 03:09:26;;;;;;;7.75;3.28;;;18.40;92.40;;;;;;5025206;28;20044;-80
2021/09/27 03:12:07;;;;;;;7.13;3.47;;;18.50;92.50;;;;;;5063373;28;20048;-80
2021/09/27 03:14:41;;;;;;;7.50;2.85;;;18.50;92.50;;;;;;5068255;28;20033;-81
2021/09/27 03:17:48;;;;;;;5.82;3.40;;;18.50;92.40;;;;;;5068030;28;20041;-80
2021/09/27 03:20:42;;;;;;;7.60;3.45;;;18.60;92.40;;;;;;5067219;28;20083;-81
2021/09/27 03:23:29;;;;;;;6.80;3.05;;;18.60;92.40;;;;;;5066696;28;20038;-80
2021/09/27 03:26:08;;;;;;;6.00;3.00;;;18.50;92.40;;;;;;5067146;28;20051;-81
2021/09/27 03:28:44;;;;;;;4.88;2.92;;;18.50;92.50;;;;;;5066045;28;20035;-81
2021/09/27 03:31:45;;;;;;;5.20;2.93;;;18.50;92.50;;;;;;5066535;28;20094;-81
2021/09/27 03:34:33;;;;;;;6.20;3.10;;;18.50;92.50;;;;;;5005500;28;20037;-81
2021/09/27 03:37:23;;;;;;;3.67;2.65;;;18.50;92.50;;;;;;5063788;28;20632;-81
2021/09/27 03:40:10;;;;;;;7.25;2.83;;;18.50;92.60;;;;;;5067552;28;20035;-81
2021/09/27 03:42:39;;;;;;;7.15;2.90;;;18.50;92.60;;;;;;5065861;28;20035;-81
2021/09/27 03:45:09;;;;;;;10.40;3.20;;;18.50;92.60;;;;;;5067514;28;20568;-81
2021/09/27 03:47:49;;;;;;;10.23;3.25;;;18.50;92.60;;;;;;5067143;28;20024;-80
2021/09/27 03:50:22;;;;;;;5.53;2.63;;;18.50;92.50;;;;;;5066138;28;20051;-82
2021/09/27 03:52:56;;;;;;;6.40;3.25;;;18.60;92.50;;;;;;5065491;28;20592;-81
2021/09/27 03:55:57;;;;;;;6.65;3.00;;;18.60;92.40;;;;;;5066630;28;20650;-81
2021/09/27 03:58:35;;;;;;;4.13;2.97;;;18.60;92.40;;;;;;5032889;28;20260;-81
2021/09/27 04:01:08;;;;;;;6.20;3.05;;;18.60;92.40;;;;;;5067369;28;20027;-80
2021/09/27 04:03:51;;;;;;;6.13;3.00;;;18.60;92.30;;;;;;5066139;28;20025;-81
2021/09/27 04:06:30;;;;;;;4.75;3.00;;;18.60;92.70;;;;;;5066909;28;20466;-81
2021/09/27 04:09:05;;;;;;;4.60;3.10;;;18.60;92.40;;;;;;5066220;28;20039;-80
2021/09/27 04:11:33;;;;;;;11.43;2.95;;;18.60;92.40;;;;;;5067233;28;20103;-81
2021/09/27 04:14:10;;;;;;;4.53;3.00;;;18.50;92.40;;;;;;5066753;28;20033;-81
2021/09/27 04:16:53;;;;;;;;;;;18.50;92.50;;;;;;5066766;28;20446;-80
2021/09/27 04:19:32;;;;;;;4.65;2.72;;;18.50;92.50;;;;;;5066391;28;19915;-80
2021/09/27 04:22:08;;;;;;;3.97;2.50;;;18.50;92.50;;;;;;5065410;28;20067;-81
2021/09/27 04:24:34;;;;;;;;;;;18.50;92.40;;;;;;5067463;28;20024;-79
2021/09/27 04:27:35;;;;;;;5.28;2.67;;;18.50;92.30;;;;;;5066757;28;19919;-80
2021/09/27 04:30:33;;;;;;;10.18;3.30;;;18.60;92.20;;;;;;5066347;28;20028;-81
2021/09/27 04:33:17;;;;;;;4.18;3.17;;;18.60;92.20;;;;;;5065683;28;20029;-80
2021/09/27 04:35:57;;;;;;;6.10;2.97;;;18.70;92.00;;;;;;5065891;28;20396;-80
2021/09/27 04:38:23;;;;;;;5.60;3.28;;;18.70;91.90;;;;;;5065925;28;20680;-81
2021/09/27 04:41:25;;;;;;;7.70;2.33;;;18.70;91.80;;;;;;5066554;28;20040;-81
2021/09/27 04:44:13;;;;;;;5.97;2.85;;;18.80;91.60;;;;;;5066501;28;20072;-81
2021/09/27 04:46:51;;;;;;;7.90;2.78;;;18.90;91.40;;;;;;5034545;28;20576;-80
2021/09/27 04:50:04;;;;;;;4.18;2.53;;;18.90;91.40;;;;;;5066190;28;20017;-81
2021/09/27 04:53:06;;;;;;;5.90;3.22;;;19.00;91.20;;;;;;5023241;28;20651;-79
2021/09/27 04:55:47;;;;;;;7.13;3.20;;;19.10;91.00;;;;;;5066323;28;20059;-79
2021/09/27 04:58:50;;;;;;;3.92;2.88;;;19.10;90.90;;;;;;5065654;28;20036;-79
2021/09/27 05:01:31;;;;;;;6.70;2.80;;;19.10;90.70;;;;;;5065935;28;20036;-80
2021/09/27 05:04:18;;;;;;;5.53;2.55;;;19.20;90.70;;;;;;5063549;28;20058;-80
2021/09/27 05:07:02;;;;;;;6.43;2.85;;;19.20;90.70;;;;;;5063707;28;20062;-80
2021/09/27 05:10:04;;;;;;;17.52;3.67;;;19.30;90.40;;;;;;5065104;28;20032;-80
2021/09/27 05:12:50;;;;;;;5.90;2.88;;;19.40;90.40;;;;;;5066110;28;20416;-80
2021/09/27 05:15:27;;;;;;;3.58;2.30;;;19.40;90.20;;;;;;5064745;28;20491;-80
2021/09/27 05:17:58;;;;;;;7.68;3.50;;;19.40;90.00;;;;;;5064211;28;20053;-78
2021/09/27 05:20:36;;;;;;;5.60;2.35;;;19.50;89.50;;;;;;5067098;28;20025;-80
2021/09/27 05:23:28;;;;;;;8.43;2.83;;;19.50;89.30;;;;;;5067883;28;20056;-79
2021/09/27 05:26:05;;;;;;;3.10;2.40;;;19.70;89.00;;;;;;5069518;28;20112;-79
2021/09/27 05:28:49;;;;;;;4.35;2.30;;;19.70;88.50;;;;;;5069291;28;20037;-79
2021/09/27 05:31:41;;;;;;;4.47;3.30;;;19.70;88.50;;;;;;5067913;28;20025;-79
2021/09/27 05:34:07;;;;;;;5.88;2.92;;;19.80;88.00;;;;;;5069296;28;20531;-80
2021/09/27 05:37:03;;;;;;;8.38;3.10;;;19.80;87.90;;;;;;5069138;28;20036;-80
2021/09/27 05:39:50;;;;;;;4.75;2.75;;;19.90;87.60;;;;;;5069116;28;20505;-80
2021/09/27 05:42:35;;;;;;;5.20;2.50;;;19.90;87.60;;;;;;5069399;28;20063;-81
2021/09/27 05:45:29;;;;;;;6.32;2.90;;;19.90;87.80;;;;;;5068018;28;20119;-80
2021/09/27 05:47:57;;;;;;;7.60;2.78;;;19.90;87.30;;;;;;5068626;28;20028;-84
2021/09/27 05:50:54;;;;;;;9.27;2.65;;;19.90;87.20;;;;;;5069260;28;20036;-80
2021/09/27 05:53:32;;;;;;;7.07;3.55;;;19.90;87.20;;;;;;5068651;28;20029;-78
2021/09/27 05:56:20;;;;;;;5.72;3.35;;;20.00;87.20;;;;;;5069037;28;20024;-78
2021/09/27 05:59:04;;;;;;;13.20;6.68;;;20.00;86.60;;;;;;5068040;28;20032;-79
2021/09/27 06:01:48;;;;;;;4.90;2.88;;;20.00;86.50;;;;;;5068890;28;20078;-79
2021/09/27 06:04:49;;;;;;;11.30;3.03;;;20.10;86.40;;;;;;5067623;28;20029;-78
2021/09/27 06:07:29;;;;;;;4.53;2.92;;;20.20;85.60;;;;;;5057337;28;20040;-80
2021/09/27 06:10:07;;;;;;;5.75;3.17;;;20.30;85.10;;;;;;5068587;28;20021;-80
2021/09/27 06:12:38;;;;;;;7.05;2.90;;;20.40;84.70;;;;;;5068882;28;20036;-79
2021/09/27 06:15:11;;;;;;;4.60;2.47;;;20.50;84.20;;;;;;5068901;28;20028;-79
2021/09/27 06:17:55;;;;;;;4.88;2.70;;;20.60;83.70;;;;;;5068346;28;20040;-80
2021/09/27 06:20:31;;;;;;;6.32;2.53;;;20.70;83.10;;;;;;5067920;28;20087;-79
2021/09/27 06:23:50;;;;;;;6.68;2.92;;;20.80;82.60;;;;;;5067242;28;20029;-80
2021/09/27 06:26:17;;;;;;;7.75;2.78;;;21.00;81.80;;;;;;5006261;28;20109;-79
2021/09/27 06:29:16;;;;;;;8.88;2.92;;;21.20;81.00;;;;;;5061162;28;20032;-79
2021/09/27 06:32:18;;;;;;;6.72;2.60;;;21.20;80.30;;;;;;5066659;28;20063;-78
2021/09/27 06:34:58;;;;;;;3.97;2.60;;;21.30;79.80;;;;;;5068382;28;20025;-79
2021/09/27 06:37:26;;;;;;;8.93;2.63;;;21.40;79.40;;;;;;5067947;28;20048;-78
2021/09/27 06:39:53;;;;;;;6.35;2.47;;;21.90;78.00;;;;;;5068005;28;20095;-79
2021/09/27 06:42:19;;;;;;;10.93;2.75;;;22.40;76.30;;;;;;5068594;28;20103;-80
2021/09/27 06:44:46;;;;;;;3.60;2.55;;;23.10;73.60;;;;;;5068501;28;20112;-79
2021/09/27 06:47:13;;;;;;;3.88;2.60;;;23.40;72.80;;;;;;5068458;28;20078;-80
2021/09/27 06:49:38;;;;;;;8.20;2.45;;;23.90;70.80;;;;;;5067928;28;20033;-78
2021/09/27 06:52:04;;;;;;;4.45;2.83;;;24.00;68.90;;;;;;5066194;28;20024;-79
2021/09/27 06:54:30;;;;;;;8.75;1.92;;;24.20;68.70;;;;;;5068259;28;20029;-80
2021/09/27 06:56:56;;;;;;;10.82;2.53;;;24.60;67.10;;;;;;5066350;28;20078;-78
2021/09/27 06:59:22;;;;;;;9.57;2.50;;;24.90;65.80;;;;;;5067954;28;20182;-78
2021/09/27 07:01:48;;;;;;;8.02;2.53;;;25.00;64.20;;;;;;5067740;28;20042;-80
2021/09/27 07:04:15;;;;;;;3.22;2.15;;;25.20;63.90;;;;;;5067134;28;20032;-78
2021/09/27 07:06:41;;;;;;;5.63;2.03;;;25.20;63.60;;;;;;5065983;28;20024;-79
2021/09/27 07:09:07;;;;;;;7.70;3.00;;;25.20;63.80;;;;;;5067635;28;20036;-80
2021/09/27 07:11:33;;;;;;;4.57;2.22;;;25.40;62.70;;;;;;5066044;28;20128;-80
2021/09/27 07:13:59;;;;;;;4.75;3.05;;;25.70;62.30;;;;;;5066833;28;20028;-80
2021/09/27 07:16:24;;;;;;;6.15;2.20;;;26.00;60.20;;;;;;5067099;28;20054;-80
2021/09/27 07:18:50;;;;;;;5.93;2.63;;;26.10;59.90;;;;;;5068137;28;20036;-81
2021/09/27 07:21:15;;;;;;;3.20;2.38;;;26.00;60.10;;;;;;5066507;28;20035;-82
2021/09/27 07:23:41;;;;;;;5.95;2.20;;;26.00;58.90;;;;;;5067035;28;20075;-80
2021/09/27 07:26:14;;;;;;;4.78;2.50;;;25.70;59.60;;;;;;5068247;28;20035;-81
2021/09/27 07:28:40;;;;;;;9.13;2.72;;;25.40;59.90;;;;;;5067845;28;20036;-81
2021/09/27 07:31:07;;;;;;;3.78;2.58;;;25.00;61.00;;;;;;5067367;28;20025;-81
2021/09/27 07:33:34;;;;;;;4.57;2.47;;;24.60;62.10;;;;;;5067821;28;20055;-78
2021/09/27 07:36:01;;;;;;;5.93;2.83;;;24.40;63.40;;;;;;5066757;28;20392;-79
2021/09/27 07:38:27;;;;;;;7.07;2.83;;;24.10;63.90;;;;;;5065553;28;20052;-80
2021/09/27 07:40:53;;;;;;;14.10;2.17;;;24.00;64.20;;;;;;5067074;28;20024;-79
2021/09/27 07:43:19;;;;;;;5.38;2.40;;;23.60;65.30;;;;;;5066775;28;20032;-79
2021/09/27 07:45:46;;;;;;;7.55;2.60;;;23.50;66.30;;;;;;5066632;28;20751;-80
2021/09/27 07:48:13;;;;;;;12.88;3.15;;;23.40;66.20;;;;;;5066390;28;20115;-81
2021/09/27 07:50:42;;;;;;;7.72;3.00;;;23.20;66.30;;;;;;5066757;28;20064;-80
2021/09/27 07:53:08;;;;;;;4.93;2.30;;;23.00;67.30;;;;;;5065907;28;20036;-80
2021/09/27 07:55:34;;;;;;;4.25;2.33;;;22.80;67.80;;;;;;5066674;28;20063;-80
2021/09/27 07:58:00;;;;;;;6.15;2.78;;;22.70;68.20;;;;;;5066422;28;20072;-79
2021/09/27 08:00:27;;;;;;;5.57;2.80;;;22.60;69.00;;;;;;5066751;28;20020;-81
2021/09/27 08:02:53;;;;;;;4.32;2.40;;;22.40;69.00;;;;;;5066887;28;20038;-80
2021/09/27 08:05:22;;;;;;;3.60;2.40;;;22.30;69.50;;;;;;5066703;28;20020;-80
2021/09/27 08:07:48;;;;;;;5.75;2.78;;;22.20;70.10;;;;;;5066383;28;20107;-80
2021/09/27 08:10:16;;;;;;;4.63;3.00;;;22.20;71.00;;;;;;5066858;28;20115;-79
2021/09/27 08:12:43;;;;;;;6.78;2.85;;;22.20;71.20;;;;;;5067090;28;20081;-79
2021/09/27 08:15:17;;;;;;;7.82;3.17;;;22.10;71.00;;;;;;5066950;28;20028;-80
2021/09/27 08:17:45;;;;;;;6.47;2.50;;;22.00;71.30;;;;;;5066442;28;20036;-79
2021/09/27 08:20:12;;;;;;;3.65;2.70;;;21.90;71.70;;;;;;5066168;28;20016;-79
2021/09/27 08:22:38;;;;;;;5.13;2.97;;;21.90;72.10;;;;;;5066313;28;20798;-77
2021/09/27 08:25:05;;;;;;;7.25;2.88;;;21.80;72.20;;;;;;5066087;28;20032;-79
2021/09/27 08:27:31;;;;;;;4.35;2.85;;;21.70;72.70;;;;;;5066781;28;20028;-80
2021/09/27 08:29:56;;;;;;;6.03;3.08;;;21.70;73.00;;;;;;5065142;28;20024;-80
2021/09/27 08:32:22;;;;;;;7.38;3.45;;;21.70;73.20;;;;;;5066159;28;20051;-80
2021/09/27 08:34:51;;;;;;;3.97;2.65;;;21.70;73.40;;;;;;5066191;28;20028;-80
2021/09/27 08:37:19;;;;;;;4.32;2.70;;;21.70;73.60;;;;;;5064575;28;20072;-79
2021/09/27 08:39:46;;;;;;;4.63;2.53;;;21.80;73.80;;;;;;5064706;28;20024;-80
2021/09/27 08:42:25;;;;;;;7.45;2.92;;;21.80;73.80;;;;;;5065051;28;20033;-79
2021/09/27 08:45:03;;;;;;;5.72;2.70;;;21.90;73.90;;;;;;5064594;28;20405;-79
2021/09/27 08:47:53;;;;;;;9.77;3.42;;;22.00;74.00;;;;;;5064869;28;20024;-79
2021/09/27 08:50:32;;;;;;;4.57;2.72;;;22.10;73.70;;;;;;5066073;28;20489;-78
2021/09/27 08:53:33;;;;;;;7.22;2.88;;;22.30;73.80;;;;;;5066748;28;20025;-80
2021/09/27 08:56:33;;;;;;;8.27;3.22;;;22.40;73.40;;;;;;5069892;28;20595;-80
2021/09/27 08:59:35;;;;;;;5.60;3.22;;;22.60;73.20;;;;;;5067564;28;20040;-80
2021/09/27 09:02:29;;;;;;;5.65;2.92;;;22.60;73.20;;;;;;5069764;28;20036;-80
2021/09/27 09:05:26;;;;;;;5.72;2.80;;;22.60;73.40;;;;;;5070223;28;20064;-80
2021/09/27 09:08:02;;;;;;;7.70;3.22;;;22.50;73.30;;;;;;5069503;28;20086;-80
2021/09/27 09:10:50;;;;;;;5.15;3.28;;;22.50;74.10;;;;;;5068763;28;20029;-79
2021/09/27 09:13:23;;;;;;;5.95;2.67;;;22.30;74.20;;;;;;5069948;28;20031;-79
2021/09/27 09:16:01;;;;;;;14.77;3.72;;;22.30;75.10;;;;;;5069937;28;20032;-80
2021/09/27 09:18:32;;;;;;;8.18;3.80;;;22.20;75.50;;;;;;5068412;28;20036;-79
2021/09/27 09:21:04;;;;;;;10.25;3.72;;;22.20;75.50;;;;;;5068110;28;20029;-79
2021/09/27 09:23:40;;;;;;;5.13;3.40;;;22.20;75.20;;;;;;5069809;28;20031;-79
2021/09/27 09:26:10;;;;;;;4.90;3.13;;;22.20;75.60;;;;;;5068318;28;20046;-80
2021/09/27 09:28:36;;;;;;;6.47;2.65;;;22.30;75.50;;;;;;5068717;28;20031;-80
2021/09/27 09:31:16;;;;;;;13.80;3.40;;;22.40;75.50;;;;;;5070158;28;20082;-79
2021/09/27 09:33:49;;;;;;;6.57;3.30;;;22.40;75.60;;;;;;5069540;28;20420;-79
2021/09/27 09:36:26;;;;;;;4.72;2.75;;;22.30;76.50;;;;;;5069261;28;20052;-78
2021/09/27 09:38:52;;;;;;;5.25;3.80;;;22.30;75.90;;;;;;5069014;28;20115;-78
2021/09/27 09:41:19;;;;;;;5.85;3.53;;;22.40;76.00;;;;;;5069112;28;20025;-82
2021/09/27 09:43:50;;;;;;;7.70;3.20;;;22.30;75.60;;;;;;5069335;28;20067;-80
2021/09/27 09:46:30;;;;;;;6.75;3.25;;;22.20;75.80;;;;;;5068922;28;20085;-81
2021/09/27 09:49:08;;;;;;;6.75;2.95;;;22.10;76.50;;;;;;5068907;28;20064;-81
2021/09/27 09:51:49;;;;;;;4.88;2.75;;;22.10;77.00;;;;;;5067792;28;20071;-79
2021/09/27 09:54:23;;;;;;;3.67;3.00;;;22.10;77.60;;;;;;5069117;28;20036;-80
2021/09/27 09:56:58;;;;;;;12.35;3.50;;;22.10;77.50;;;;;;5068326;28;20040;-81
2021/09/27 09:59:35;;;;;;;6.78;3.72;;;22.00;77.30;;;;;;5069624;28;20028;-81
2021/09/27 10:02:07;;;;;;;9.52;3.72;;;22.00;77.90;;;;;;5069072;28;20066;-81
2021/09/27 10:04:42;;;;;;;9.18;3.55;;;21.90;78.60;;;;;;5066720;28;20032;-79
2021/09/27 10:07:15;;;;;;;11.48;3.85;;;21.80;78.90;;;;;;5068806;28;20035;-80
2021/09/27 10:10:00;;;;;;;5.25;3.92;;;21.90;79.10;;;;;;5068852;28;20581;-80
2021/09/27 10:12:36;;;;;;;15.45;4.30;;;21.80;78.80;;;;;;5068922;28;20031;-79
2021/09/27 10:15:03;;;;;;;12.98;3.60;;;21.80;79.40;;;;;;5067655;28;20032;-82
2021/09/27 10:17:38;;;;;;;14.70;3.75;;;21.80;79.90;;;;;;5067205;28;20037;-81
2021/09/27 10:20:16;;;;;;;5.93;3.53;;;21.90;80.20;;;;;;5067378;28;20082;-80
2021/09/27 10:23:00;;;;;;;8.35;3.10;;;21.90;80.10;;;;;;5068880;28;20102;-81
2021/09/27 10:25:42;;;;;;;12.70;3.65;;;21.90;80.70;;;;;;5067152;28;20020;-79
2021/09/27 10:28:27;;;;;;;6.32;3.40;;;22.00;81.20;;;;;;5068135;28;20031;-82
2021/09/27 10:30:57;;;;;;;10.77;4.18;;;22.00;80.50;;;;;;5066220;28;20031;-80
2021/09/27 10:33:35;;;;;;;9.15;4.03;;;22.00;80.40;;;;;;5067853;28;20036;-82
2021/09/27 10:36:07;;;;;;;15.23;3.63;;;22.00;80.20;;;;;;5067397;28;20122;-80
2021/09/27 10:38:45;;;;;;;16.90;4.28;;;22.00;80.30;;;;;;5067368;28;20031;-81
2021/09/27 10:41:35;;;;;;;8.93;3.35;;;22.00;80.20;;;;;;5067660;28;20108;-79
2021/09/27 10:44:26;;;;;;;10.07;3.33;;;22.10;80.50;;;;;;5067623;28;20040;-79
2021/09/27 10:47:02;;;;;;;10.45;3.47;;;22.30;79.80;;;;;;5038513;28;20067;-80
2021/09/27 10:49:41;;;;;;;14.82;3.22;;;22.30;78.80;;;;;;5068019;28;20076;-78
2021/09/27 10:52:12;;;;;;;11.93;3.10;;;22.50;78.70;;;;;;5066925;28;20028;-79
2021/09/27 10:54:54;;;;;;;6.75;3.28;;;22.80;78.50;;;;;;5067671;28;20024;-79
2021/09/27 10:57:24;;;;;;;7.35;3.10;;;23.40;76.50;;;;;;5068029;28;20033;-81
2021/09/27 10:59:53;;;;;;;7.65;3.05;;;24.00;74.00;;;;;;5067326;28;20024;-81
2021/09/27 11:02:32;;;;;;;13.95;4.03;;;24.30;73.30;;;;;;5066607;28;20032;-81
2021/09/27 11:05:22;;;;;;;9.00;3.30;;;24.60;70.60;;;;;;5067200;28;20027;-79
2021/09/27 11:07:56;;;;;;;7.38;3.40;;;24.70;69.50;;;;;;5067634;28;20790;-79
2021/09/27 11:10:39;;;;;;;7.40;3.00;;;24.50;70.00;;;;;;5067717;28;20017;-81
2021/09/27 11:13:06;;;;;;;15.88;4.88;;;24.30;71.00;;;;;;5065360;28;20492;-80
2021/09/27 11:15:34;;;;;;;4.10;3.03;;;24.40;69.50;;;;;;5066027;28;20074;-80
2021/09/27 11:18:06;;;;;;;11.23;3.75;;;24.20;70.50;;;;;;5064519;28;20037;-80
2021/09/27 11:20:53;;;;;;;6.35;3.20;;;24.20;70.60;;;;;;5065687;28;20119;-80
2021/09/27 11:23:32;;;;;;;8.68;3.28;;;24.10;70.20;;;;;;5066048;28;20029;-81
2021/09/27 11:26:20;;;;;;;9.65;3.90;;;24.00;71.00;;;;;;5066102;28;20024;-80
2021/09/27 11:28:52;;;;;;;14.15;3.58;;;24.00;70.50;;;;;;5066968;28;20020;-81
2021/09/27 11:31:17;;;;;;;9.13;3.25;;;23.90;70.60;;;;;;5067183;28;20107;-81
2021/09/27 11:33:47;;;;;;;6.03;3.70;;;23.80;71.10;;;;;;5066698;28;20103;-80
2021/09/27 11:36:12;;;;;;;9.73;3.42;;;23.80;70.10;;;;;;5065235;28;20143;-80
2021/09/27 11:38:42;;;;;;;10.25;2.85;;;23.70;69.20;;;;;;5067025;28;20115;-81
2021/09/27 11:41:10;;;;;;;8.30;3.63;;;23.70;69.80;;;;;;5066643;28;20025;-80
2021/09/27 11:43:46;;;;;;;4.55;3.25;;;23.60;70.20;;;;;;5067002;28;20102;-80
2021/09/27 11:46:15;;;;;;;6.47;3.40;;;23.70;69.70;;;;;;5066478;28;20070;-80
2021/09/27 11:48:46;;;;;;;10.13;4.25;;;23.70;69.00;;;;;;5065338;28;20021;-80
2021/09/27 11:51:24;;;;;;;8.75;3.67;;;23.70;69.30;;;;;;5065340;28;20416;-81
2021/09/27 11:54:09;;;;;;;9.32;3.65;;;23.70;69.90;;;;;;5065380;28;20021;-80
2021/09/27 11:56:55;;;;;;;7.95;3.78;;;23.80;68.90;;;;;;5066224;28;20054;-80
2021/09/27 11:59:25;;;;;;;6.53;3.40;;;23.80;68.40;;;;;;5066120;28;20048;-81
2021/09/27 12:02:01;;;;;;;14.05;3.25;;;23.80;68.90;;;;;;5065020;28;20270;-81
2021/09/27 12:04:40;;;;;;;5.70;3.78;;;23.80;69.70;;;;;;5065063;28;20103;-79
2021/09/27 12:07:11;;;;;;;5.90;2.92;;;23.80;69.20;;;;;;5066540;28;20054;-79
2021/09/27 12:10:03;;;;;;;7.65;3.80;;;23.90;68.60;;;;;;5064778;28;20021;-79
2021/09/27 12:12:39;;;;;;;5.45;3.20;;;24.00;67.60;;;;;;5064781;28;20485;-80
2021/09/27 12:15:06;;;;;;;3.75;3.35;;;24.10;67.50;;;;;;5066726;28;20327;-81
2021/09/27 12:17:34;;;;;;;8.77;3.55;;;24.10;67.40;;;;;;5065060;28;20041;-80
2021/09/27 12:20:07;;;;;;;7.78;3.80;;;24.20;67.60;;;;;;5065825;28;20158;-80
2021/09/27 12:23:01;;;;;;;4.82;3.42;;;24.40;66.80;;;;;;5066344;28;20060;-82
2021/09/27 12:25:36;;;;;;;8.95;3.15;;;24.40;66.60;;;;;;5062025;28;20087;-81
2021/09/27 12:28:08;;;;;;;5.57;3.38;;;24.30;67.50;;;;;;5065643;28;20032;-80
2021/09/27 12:30:44;;;;;;;5.32;3.30;;;24.40;66.30;;;;;;5065144;28;20025;-80
2021/09/27 12:33:25;;;;;;;3.83;3.20;;;24.40;66.00;;;;;;5064694;28;20120;-79
2021/09/27 12:36:02;;;;;;;9.90;3.65;;;24.50;66.30;;;;;;5064874;28;20513;-82
2021/09/27 12:38:29;;;;;;;7.30;3.53;;;24.30;66.50;;;;;;5065781;28;20125;-80
2021/09/27 12:40:55;;;;;;;11.13;3.45;;;24.20;67.00;;;;;;5064841;28;20497;-79
2021/09/27 12:43:23;;;;;;;13.85;3.70;;;24.30;66.30;;;;;;5064838;28;20036;-80
2021/09/27 12:45:50;;;;;;;6.80;3.75;;;24.50;66.70;;;;;;5064401;28;20028;-79
2021/09/27 12:48:36;;;;;;;6.47;2.90;;;24.50;65.70;;;;;;5066062;28;20093;-79
2021/09/27 12:51:11;;;;;;;5.93;3.40;;;24.50;65.60;;;;;;5064893;28;20032;-81
2021/09/27 12:53:44;;;;;;;6.20;3.10;;;24.60;66.10;;;;;;5064146;28;20259;-79
2021/09/27 12:56:12;;;;;;;4.90;3.10;;;24.70;65.60;;;;;;5064889;28;20021;-79
2021/09/27 12:58:52;;;;;;;6.97;3.83;;;24.80;64.10;;;;;;5065377;28;20524;-81
2021/09/27 13:01:21;;;;;;;9.63;3.08;;;24.70;63.60;;;;;;5064927;28;20025;-80
2021/09/27 13:04:03;;;;;;;8.52;3.42;;;24.70;64.30;;;;;;5063411;28;20047;-80
2021/09/27 13:06:33;;;;;;;10.32;3.50;;;24.70;64.50;;;;;;5065317;28;20059;-80
2021/09/27 13:09:22;;;;;;;5.95;3.15;;;24.70;64.80;;;;;;5065516;28;20405;-80
2021/09/27 13:12:07;;;;;;;8.48;3.50;;;24.70;65.70;;;;;;5065133;28;20403;-79
2021/09/27 13:14:33;;;;;;;11.00;3.38;;;24.90;65.00;;;;;;5064782;28;20033;-80
2021/09/27 13:17:20;;;;;;;6.45;2.80;;;24.80;64.70;;;;;;5064660;28;20167;-80
2021/09/27 13:19:55;;;;;;;6.68;3.20;;;24.80;64.10;;;;;;5064448;28;20036;-80
2021/09/27 13:22:46;;;;;;;7.70;2.83;;;24.70;64.20;;;;;;5066022;28;20560;-79
2021/09/27 13:25:28;;;;;;;9.45;2.75;;;24.70;64.50;;;;;;5065209;28;20048;-80
2021/09/27 13:27:59;;;;;;;9.27;2.78;;;24.70;63.80;;;;;;5063786;28;20029;-80
2021/09/27 13:30:34;;;;;;;6.32;2.75;;;24.60;64.20;;;;;;5066143;28;20024;-81
2021/09/27 13:33:02;;;;;;;11.05;3.40;;;24.60;63.80;;;;;;5064322;28;20489;-80
2021/09/27 13:35:34;;;;;;;17.23;3.08;;;24.50;63.70;;;;;;5065892;28;20033;-81